CST,Max TemperatureF,Mean TemperatureF,Min TemperatureF,Max Dew PointF,MeanDew PointF,Min DewpointF,Max Humidity, Mean Humidity, Min Humidity, Max Sea Level PressureIn, Mean Sea Level PressureIn, Min Sea Level PressureIn, Max VisibilityMiles, Mean VisibilityMiles, Min VisibilityMiles, Max Wind SpeedMPH, Mean Wind SpeedMPH, Max Gust SpeedMPH,PrecipitationIn, CloudCover, Events, WindDirDegrees
2011-12-1,34,23,12,28,19,7,82,61,39,30.59,30.37,29.99,10,10,10,33,18,41,0.00,3,,357
2011-12-2,37,24,10,25,14,6,84,61,38,30.55,30.26,30.02,10,10,10,21,8,26,0.00,1,,188
2011-12-3,33,26,19,28,25,16,92,81,69,30.16,30.02,29.93,10,4,0,25,11,31,0.48,7,Fog-Snow,359
2011-12-4,24,13,1,18,11,-2,96,85,73,30.47,30.28,30.08,10,9,4,23,6,28,0.00,0,Snow,282
2011-12-5,20,11,2,14,6,-1,91,79,67,30.60,30.54,30.43,10,10,8,26,12,32,T,2,,345
2011-12-6,16,5,-7,8,1,-10,91,79,67,30.57,30.38,30.21,10,9,7,13,6,18,0.00,0,,232
2011-12-7,36,21,6,27,14,1,92,78,64,30.24,30.16,30.01,10,9,2,14,6,17,0.00,0,,268
2011-12-8,30,21,11,28,21,10,96,92,88,30.35,30.22,30.14,10,4,0,17,5,22,0.23,7,Fog-Snow,39
2011-12-9,26,14,2,21,9,-1,96,87,77,30.54,30.43,30.29,10,6,0,13,4,16,0.00,6,Fog,265
2011-12-10,35,19,3,26,18,0,92,78,64,30.51,30.37,30.22,10,7,1,14,7,20,0.00,2,,212
2011-12-11,37,30,23,35,30,21,100,91,82,30.27,30.12,30.00,7,4,1,18,11,24,0.00,7,,188
2011-12-12,39,35,30,36,32,28,92,87,82,30.29,30.15,30.02,10,6,4,15,7,20,0.00,8,,273
2011-12-13,38,34,29,38,34,27,100,96,92,30.30,30.11,29.93,5,2,0,17,6,23,0.17,8,Fog-Rain,112
2011-12-14,44,38,32,43,37,28,100,91,82,29.99,29.80,29.68,10,5,0,16,8,44,0.02,5,Fog-Rain,272
2011-12-15,37,29,20,27,20,16,84,64,44,30.42,30.27,29.98,10,10,10,22,9,28,0.00,0,,327
2011-12-16,42,32,21,29,23,18,85,70,54,30.43,30.38,30.30,10,10,10,16,8,23,0.00,0,,213
2011-12-17,49,38,27,30,25,21,85,64,42,30.39,30.34,30.26,10,10,10,14,7,17,0.00,0,,256
2011-12-18,50,40,29,36,30,23,89,75,61,30.23,29.99,29.84,10,10,7,14,6,18,0.00,0,,220
2011-12-19,35,32,29,29,26,21,92,78,64,30.25,30.11,29.84,10,10,10,30,17,39,0.00,5,,15
2011-12-20,32,29,25,27,22,18,92,78,63,30.19,30.01,29.81,10,9,1,20,8,24,T,6,Snow,3
2011-12-21,47,35,23,32,26,18,89,69,49,30.05,29.84,29.66,10,9,2,20,10,23,T,2,Snow,318
2011-12-22,33,23,12,31,22,10,100,82,63,30.51,30.27,30.03,10,7,1,26,13,32,0.06,5,Snow,9
2011-12-23,34,22,10,25,16,6,88,75,61,30.49,30.35,30.20,10,10,10,17,8,22,0.00,0,,243
2011-12-24,48,35,21,27,22,16,77,60,42,30.40,30.35,30.30,10,10,10,12,7,17,0.00,0,,271
2011-12-25,48,36,24,25,22,19,78,57,36,30.52,30.41,30.28,10,10,10,15,6,20,0.00,0,,285
2011-12-26,49,37,25,27,23,20,81,62,42,30.25,30.06,29.90,10,10,10,21,10,32,0.00,0,,236
2011-12-27,43,33,23,24,21,18,75,57,39,30.17,30.09,30.01,10,10,10,16,9,22,0.00,0,,285
2011-12-28,54,39,23,27,24,19,81,57,32,30.00,29.92,29.81,10,10,10,14,7,17,0.00,0,,246
2011-12-29,57,45,33,42,32,27,76,58,40,29.80,29.68,29.49,10,10,7,36,12,47,0.01,2,Rain,257
2011-12-30,54,45,36,33,24,18,76,50,24,29.90,29.83,29.71,10,10,10,25,13,32,0.00,0,,268
2011-12-31,54,43,32,36,30,24,82,63,44,30.16,29.71,29.47,10,10,10,37,16,47,0.02,2,Rain,279